createdAt,value
2022-11-05T00:00:19.690Z,93249.28
2022-11-05T00:03:04.954Z,93243.78
2022-11-05T00:05:50.871Z,93236.81
2022-11-05T00:08:36.217Z,93245.44
2022-11-05T00:11:02.978Z,93245.56
2022-11-05T00:13:48.235Z,93242.28
2022-11-05T00:16:33.609Z,93255.84
2022-11-05T00:19:10.257Z,93246.25
2022-11-05T00:21:57.218Z,93246.53
2022-11-05T00:24:42.974Z,93248.09
2022-11-05T00:27:09.907Z,93229.84
2022-11-05T00:29:36.638Z,93236.25
2022-11-05T00:32:03.525Z,93237.16
2022-11-05T00:34:30.236Z,93225.63
2022-11-05T00:36:57.005Z,93218.50
2022-11-05T00:39:23.747Z,93229.53
2022-11-05T00:42:10.419Z,93232.25
2022-11-05T00:44:55.511Z,93231.13
2022-11-05T00:47:40.851Z,93224.38
2022-11-05T00:50:07.896Z,93217.56
2022-11-05T00:52:53.327Z,93206.47
2022-11-05T00:55:20.048Z,93207.63
2022-11-05T00:57:46.768Z,93209.13
2022-11-05T01:00:14.099Z,93202.34
2022-11-05T01:02:41.015Z,93207.25
2022-11-05T01:05:08.306Z,93197.41
2022-11-05T01:07:35.227Z,93189.63
2022-11-05T01:10:02.034Z,93195.56
2022-11-05T01:12:29.051Z,93202.47
2022-11-05T01:14:55.836Z,93196.06
2022-11-05T01:17:22.583Z,93204.44
2022-11-05T01:19:49.363Z,93205.81
2022-11-05T01:22:16.163Z,93207.41
2022-11-05T01:24:42.921Z,93209.53
2022-11-05T01:27:09.651Z,93190.34
2022-11-05T01:29:36.369Z,93178.91
2022-11-05T01:32:03.190Z,93184.88
2022-11-05T01:34:30.028Z,93178.44
2022-11-05T01:36:56.760Z,93164.50
2022-11-05T01:39:23.497Z,93154.03
2022-11-05T01:41:50.272Z,93149.16
2022-11-05T01:44:54.233Z,93162.38
2022-11-05T01:47:39.062Z,93159.06
2022-11-05T01:50:24.950Z,93150.84
2022-11-05T01:52:54.718Z,93166.78
2022-11-05T01:55:26.201Z,93157.75
2022-11-05T01:57:54.253Z,93135.75
2022-11-05T02:00:20.990Z,93139.41
2022-11-05T02:02:47.921Z,93142.63
2022-11-05T02:05:15.018Z,93134.88
2022-11-05T02:07:43.667Z,93139.78
2022-11-05T02:10:13.996Z,93144.09
2022-11-05T02:12:44.677Z,93137.50
2022-11-05T02:15:13.503Z,93147.44
2022-11-05T02:18:05.310Z,93143.50
2022-11-05T02:20:42.426Z,93145.38
2022-11-05T02:23:46.303Z,93145.38
2022-11-05T02:26:34.525Z,93138.19
2022-11-05T02:29:26.017Z,93140.38
2022-11-05T02:32:06.992Z,93141.31
2022-11-05T02:34:53.002Z,93140.75
2022-11-05T02:37:41.136Z,93146.59
2022-11-05T02:40:16.540Z,93141.91
2022-11-05T02:42:59.822Z,93145.19
2022-11-05T02:45:35.472Z,93145.91
2022-11-05T02:48:22.468Z,93148.50
2022-11-05T02:51:01.316Z,93143.16
2022-11-05T02:53:39.211Z,93146.44
2022-11-05T02:56:09.598Z,93152.88
2022-11-05T02:58:41.302Z,93158.00
2022-11-05T03:01:11.094Z,93156.91
2022-11-05T03:03:42.981Z,93164.31
2022-11-05T03:06:24.857Z,93148.66
2022-11-05T03:09:15.808Z,93149.28
2022-11-05T03:11:48.627Z,93145.78
2022-11-05T03:14:30.403Z,93144.63
2022-11-05T03:17:32.047Z,93141.41
2022-11-05T03:20:08.647Z,93150.22
2022-11-05T03:22:39.570Z,93145.09
2022-11-05T03:25:12.546Z,93157.16
2022-11-05T03:27:41.553Z,93163.88
2022-11-05T03:30:12.250Z,93162.94
2022-11-05T03:32:42.103Z,93157.50
2022-11-05T03:35:15.135Z,93161.34
2022-11-05T03:37:43.485Z,93171.63
2022-11-05T03:40:12.186Z,93180.28
2022-11-05T03:42:41.449Z,93177.41
2022-11-05T03:45:13.298Z,93175.97
2022-11-05T03:47:42.669Z,93186.69
2022-11-05T03:50:23.772Z,93192.31
2022-11-05T03:52:59.178Z,93188.75
2022-11-05T03:55:32.884Z,93202.22
2022-11-05T03:57:59.742Z,93197.41
2022-11-05T04:00:26.642Z,93196.94
2022-11-05T04:02:53.481Z,93200.00
2022-11-05T04:05:20.276Z,93203.50
2022-11-05T04:08:09.948Z,93207.84
2022-11-05T04:10:58.222Z,93195.84
2022-11-05T04:13:24.968Z,93194.88
2022-11-05T04:16:14.834Z,93192.16
2022-11-05T04:18:41.894Z,93196.50
2022-11-05T04:21:28.296Z,93197.94
2022-11-05T04:24:10.601Z,93199.84
2022-11-05T04:26:42.194Z,93201.94
2022-11-05T04:29:27.385Z,93206.41
2022-11-05T04:31:54.433Z,93203.69
2022-11-05T04:34:22.249Z,93204.00
2022-11-05T04:36:50.271Z,93209.94
2022-11-05T04:39:20.800Z,93211.41
2022-11-05T04:41:50.853Z,93219.25
2022-11-05T04:44:17.709Z,93225.19
2022-11-05T04:46:44.531Z,93217.16
2022-11-05T04:49:11.221Z,93216.53
2022-11-05T04:51:37.911Z,93222.59
2022-11-05T04:54:04.742Z,93217.66
2022-11-05T04:56:31.598Z,93215.22
2022-11-05T04:58:58.344Z,93214.09
2022-11-05T05:01:25.740Z,93214.09
2022-11-05T05:03:53.959Z,93215.53
2022-11-05T05:06:21.716Z,93219.06
2022-11-05T05:08:49.479Z,93214.41
2022-11-05T05:11:18.172Z,93217.66
2022-11-05T05:13:45.144Z,93217.16
2022-11-05T05:16:19.762Z,93221.16
2022-11-05T05:18:46.750Z,93231.06
2022-11-05T05:21:32.620Z,93228.81
2022-11-05T05:23:59.893Z,93236.97
2022-11-05T05:26:26.630Z,93232.31
2022-11-05T05:28:54.005Z,93239.22
2022-11-05T05:31:21.915Z,93243.25
2022-11-05T05:33:48.735Z,93249.31
2022-11-05T05:36:15.480Z,93256.03
2022-11-05T05:38:42.192Z,93265.31
2022-11-05T05:41:08.978Z,93274.47
2022-11-05T05:43:35.735Z,93271.38
2022-11-05T05:46:06.779Z,93273.78
2022-11-05T05:48:33.868Z,93274.72
2022-11-05T05:51:05.866Z,93275.19
2022-11-05T05:53:32.646Z,93274.84
2022-11-05T05:55:59.846Z,93277.53
2022-11-05T05:58:32.094Z,93276.53
2022-11-05T06:01:19.664Z,93274.69
2022-11-05T06:03:48.142Z,93277.72
2022-11-05T06:06:19.634Z,93281.84
2022-11-05T06:08:46.982Z,93278.72
2022-11-05T06:11:13.783Z,93272.84
2022-11-05T06:13:40.562Z,93269.72
2022-11-05T06:16:08.734Z,93267.53
2022-11-05T06:18:36.304Z,93273.91
2022-11-05T06:21:03.152Z,93272.22
2022-11-05T06:23:32.109Z,93272.50
2022-11-05T06:26:04.050Z,93280.84
2022-11-05T06:28:31.209Z,93274.91
2022-11-05T06:30:58.121Z,93274.03
2022-11-05T06:33:25.425Z,93259.94
2022-11-05T06:35:52.731Z,93259.34
2022-11-05T06:38:19.852Z,93262.22
2022-11-05T06:40:46.750Z,93263.72
2022-11-05T06:43:13.986Z,93261.16
2022-11-05T06:45:40.968Z,93259.19
2022-11-05T06:48:07.900Z,93260.38
2022-11-05T06:50:34.638Z,93258.75
2022-11-05T06:53:02.974Z,93261.38
2022-11-05T06:55:31.115Z,93260.16
2022-11-05T06:57:58.325Z,93262.78
2022-11-05T07:00:25.463Z,93248.88
2022-11-05T07:02:52.191Z,93248.75
2022-11-05T07:05:19.035Z,93245.16
2022-11-05T07:07:45.946Z,93239.94
2022-11-05T07:10:15.196Z,93235.53
2022-11-05T07:12:42.260Z,93237.63
2022-11-05T07:15:10.396Z,93235.13
2022-11-05T07:17:37.649Z,93242.53
2022-11-05T07:20:06.019Z,93227.47
2022-11-05T07:22:34.294Z,93233.44
2022-11-05T07:25:00.980Z,93240.44
2022-11-05T07:27:28.646Z,93238.44
2022-11-05T07:29:55.629Z,93233.19
2022-11-05T07:32:22.430Z,93229.13
2022-11-05T07:34:49.190Z,93228.75
2022-11-05T07:37:16.958Z,93223.59
2022-11-05T07:39:43.787Z,93229.38
2022-11-05T07:42:13.403Z,93221.31
2022-11-05T07:44:41.251Z,93220.06
2022-11-05T07:47:08.102Z,93214.38
2022-11-05T07:49:34.828Z,93213.84
2022-11-05T07:52:01.752Z,93219.38
2022-11-05T07:54:28.562Z,93220.56
2022-11-05T07:56:55.307Z,93203.97
2022-11-05T07:59:22.059Z,93207.38
2022-11-05T08:01:48.969Z,93209.22
2022-11-05T08:04:15.805Z,93213.53
2022-11-05T08:06:42.580Z,93212.94
2022-11-05T08:09:09.609Z,93211.66
2022-11-05T08:11:36.371Z,93208.47
2022-11-05T08:14:03.138Z,93209.34
2022-11-05T08:16:29.865Z,93207.75
2022-11-05T08:18:56.600Z,93200.44
2022-11-05T08:21:23.309Z,93205.56
2022-11-05T08:23:50.046Z,93208.97
2022-11-05T08:26:16.805Z,93208.97
2022-11-05T08:28:43.596Z,93206.09
2022-11-05T08:31:10.373Z,93205.75
2022-11-05T08:33:37.386Z,93204.53
2022-11-05T08:36:04.993Z,93202.91
2022-11-05T08:38:31.781Z,93195.31
2022-11-05T08:40:58.667Z,93193.47
2022-11-05T08:43:25.505Z,93197.06
2022-11-05T08:45:52.320Z,93191.69
2022-11-05T08:48:19.557Z,93189.97
2022-11-05T08:50:47.959Z,93194.56
2022-11-05T08:53:15.464Z,93192.09
2022-11-05T08:55:42.514Z,93196.94
2022-11-05T08:58:15.468Z,93196.50
2022-11-05T09:00:43.766Z,93199.63
2022-11-05T09:03:11.331Z,93192.00
2022-11-05T09:05:39.395Z,93194.69
2022-11-05T09:08:08.072Z,93195.47
2022-11-05T09:10:35.165Z,93191.66
2022-11-05T09:13:02.070Z,93183.50
2022-11-05T09:15:29.088Z,93197.84
2022-11-05T09:17:55.878Z,93201.03
2022-11-05T09:20:22.851Z,93192.31
2022-11-05T09:22:49.674Z,93192.81
2022-11-05T09:25:16.680Z,93200.44
2022-11-05T09:27:44.021Z,93193.47
2022-11-05T09:30:12.053Z,93191.63
2022-11-05T09:32:38.823Z,93191.06
2022-11-05T09:35:06.265Z,93187.22
2022-11-05T09:37:33.048Z,93182.59
2022-11-05T09:39:59.779Z,93182.94
2022-11-05T09:42:31.221Z,93190.13
2022-11-05T09:44:59.548Z,93182.59
2022-11-05T09:47:33.434Z,93181.28
2022-11-05T09:50:03.540Z,93174.59
2022-11-05T09:52:32.015Z,93167.97
2022-11-05T09:54:59.126Z,93170.81
2022-11-05T09:57:29.846Z,93180.94
2022-11-05T10:00:02.804Z,93178.03
2022-11-05T10:02:45.779Z,93182.66
2022-11-05T10:05:13.902Z,93183.84
2022-11-05T10:07:49.216Z,93177.91
2022-11-05T10:10:23.220Z,93181.53
2022-11-05T10:12:55.384Z,93170.94
2022-11-05T10:15:26.295Z,93167.63
2022-11-05T10:17:59.579Z,93158.69
2022-11-05T10:20:33.996Z,93157.88
2022-11-05T10:23:12.872Z,93172.91
2022-11-05T10:25:43.669Z,93166.94
2022-11-05T10:28:16.151Z,93168.75
2022-11-05T10:30:44.837Z,93161.13
2022-11-05T10:33:13.805Z,93167.28
2022-11-05T10:35:50.756Z,93169.91
2022-11-05T10:38:17.720Z,93163.03
2022-11-05T10:40:57.743Z,93159.22
2022-11-05T10:43:45.234Z,93158.03
2022-11-05T10:46:24.312Z,93158.81
2022-11-05T10:49:17.258Z,93158.03
2022-11-05T10:51:46.052Z,93151.69
2022-11-05T10:54:22.136Z,93146.84
2022-11-05T10:56:49.424Z,93150.72
2022-11-05T10:59:34.403Z,93146.13
2022-11-05T11:02:20.845Z,93141.88
2022-11-05T11:04:52.509Z,93145.00
2022-11-05T11:07:24.381Z,93139.75
2022-11-05T11:09:51.467Z,93137.03
2022-11-05T11:12:26.246Z,93139.75
2022-11-05T11:15:08.282Z,93148.38
2022-11-05T11:17:35.094Z,93148.53
2022-11-05T11:20:13.961Z,93137.66
2022-11-05T11:22:40.732Z,93137.50
2022-11-05T11:25:39.793Z,93136.59
2022-11-05T11:28:07.376Z,93137.16
2022-11-05T11:30:35.150Z,93136.69
2022-11-05T11:33:08.381Z,93142.69
2022-11-05T11:35:37.834Z,93134.28
2022-11-05T11:38:05.776Z,93127.94
2022-11-05T11:40:36.215Z,93128.06
2022-11-05T11:43:14.806Z,93137.16
2022-11-05T11:45:53.318Z,93137.16
2022-11-05T11:48:25.436Z,93135.81
2022-11-05T11:50:52.262Z,93128.03
2022-11-05T11:53:22.132Z,93124.53
2022-11-05T11:55:59.341Z,93123.50
2022-11-05T11:58:47.453Z,93124.53
2022-11-05T12:01:32.567Z,93122.41
2022-11-05T12:04:05.530Z,93121.50
2022-11-05T12:06:48.295Z,93125.03
2022-11-05T12:09:53.181Z,93121.75
2022-11-05T12:12:32.333Z,93120.88
2022-11-05T12:15:04.035Z,93113.28
2022-11-05T12:17:33.931Z,93111.84
2022-11-05T12:20:15.885Z,93117.50
2022-11-05T12:23:04.476Z,93112.41
2022-11-05T12:25:49.400Z,93114.91
2022-11-05T12:29:12.045Z,93113.97
2022-11-05T12:31:39.160Z,93111.22
2022-11-05T12:34:35.024Z,93117.03
2022-11-05T12:37:29.774Z,93111.22
2022-11-05T12:40:18.964Z,93112.50
2022-11-05T12:43:23.410Z,93105.47
2022-11-05T12:46:04.832Z,93111.81
2022-11-05T12:49:04.918Z,93113.38
2022-11-05T12:52:06.875Z,93115.97
2022-11-05T12:55:14.437Z,93118.34
2022-11-05T12:57:43.490Z,93106.53
2022-11-05T13:00:24.646Z,93103.13
2022-11-05T13:02:57.807Z,93108.63
2022-11-05T13:05:40.325Z,93108.63
2022-11-05T13:08:23.062Z,93103.91
2022-11-05T13:10:56.175Z,93104.47
2022-11-05T13:13:47.830Z,93108.44
2022-11-05T13:16:36.615Z,93108.88
2022-11-05T13:19:12.424Z,93109.13
2022-11-05T13:21:40.568Z,93106.72
2022-11-05T13:24:19.103Z,93103.78
2022-11-05T13:26:54.219Z,93104.44
2022-11-05T13:29:29.087Z,93106.78
2022-11-05T13:32:04.613Z,93110.81
2022-11-05T13:34:37.249Z,93114.03
2022-11-05T13:37:24.429Z,93109.44
2022-11-05T13:39:55.831Z,93121.53
2022-11-05T13:42:46.273Z,93124.22
2022-11-05T13:45:42.400Z,93126.75
2022-11-05T13:48:42.990Z,93121.78
2022-11-05T13:51:32.441Z,93119.94
2022-11-05T13:54:27.751Z,93135.00
2022-11-05T13:57:15.875Z,93129.66
2022-11-05T13:59:54.409Z,93129.94
2022-11-05T14:02:28.013Z,93121.75
2022-11-05T14:05:03.175Z,93115.09
2022-11-05T14:07:36.547Z,93121.84
2022-11-05T14:10:14.327Z,93121.19
2022-11-05T14:12:41.202Z,93127.94
2022-11-05T14:15:19.022Z,93120.22
2022-11-05T14:17:59.825Z,93122.09
2022-11-05T14:20:32.734Z,93130.16
2022-11-05T14:23:17.868Z,93124.19
2022-11-05T14:25:44.620Z,93127.06
2022-11-05T14:28:38.546Z,93125.56
2022-11-05T14:31:47.451Z,93125.41
2022-11-05T14:34:15.599Z,93121.06
2022-11-05T14:36:43.555Z,93126.69
2022-11-05T14:39:28.403Z,93126.13
2022-11-05T14:42:17.098Z,93127.34
2022-11-05T14:45:11.551Z,93116.63
2022-11-05T14:47:41.710Z,93123.22
2022-11-05T14:50:18.264Z,93122.03
2022-11-05T14:52:57.020Z,93121.44
2022-11-05T14:55:36.135Z,93123.63
2022-11-05T14:58:30.479Z,93122.63
2022-11-05T15:00:58.002Z,93119.50
2022-11-05T15:03:33.665Z,93118.94
2022-11-05T15:06:08.023Z,93115.72
2022-11-05T15:08:49.775Z,93110.38
2022-11-05T15:11:33.577Z,93109.59
2022-11-05T15:14:13.705Z,93107.41
2022-11-05T15:16:45.333Z,93107.03
2022-11-05T15:19:23.145Z,93111.81
2022-11-05T15:21:50.421Z,93110.66
2022-11-05T15:24:18.898Z,93117.41
2022-11-05T15:26:47.529Z,93112.84
2022-11-05T15:29:26.776Z,93096.47
2022-11-05T15:31:53.689Z,93103.09
2022-11-05T15:34:24.760Z,93106.22
2022-11-05T15:36:56.398Z,93116.94
2022-11-05T15:39:31.604Z,93110.31
2022-11-05T15:42:04.898Z,93114.88
2022-11-05T15:44:40.558Z,93105.50
2022-11-05T15:47:11.813Z,93108.44
2022-11-05T15:49:38.753Z,93110.13
2022-11-05T15:52:05.503Z,93111.38
2022-11-05T15:54:32.669Z,93119.28
2022-11-05T15:57:00.222Z,93119.25
2022-11-05T15:59:28.295Z,93124.63
2022-11-05T16:02:28.997Z,93121.59
2022-11-05T16:04:56.368Z,93123.75
2022-11-05T16:07:23.435Z,93117.78
2022-11-05T16:09:53.566Z,93122.28
2022-11-05T16:12:25.766Z,93126.19
2022-11-05T16:15:09.663Z,93127.06
2022-11-05T16:17:48.979Z,93128.44
2022-11-05T16:20:22.063Z,93123.19
2022-11-05T16:22:58.130Z,93127.47
2022-11-05T16:25:40.646Z,93127.72
2022-11-05T16:28:21.868Z,93141.91
2022-11-05T16:31:05.038Z,93136.44
2022-11-05T16:33:33.977Z,93139.22
2022-11-05T16:36:00.951Z,93140.81
2022-11-05T16:38:27.710Z,93132.16
2022-11-05T16:40:54.437Z,93144.66
2022-11-05T16:43:24.209Z,93146.63
2022-11-05T16:45:57.769Z,93151.28
2022-11-05T16:48:25.284Z,93142.69
2022-11-05T16:50:52.419Z,93135.09
2022-11-05T16:53:19.242Z,93137.66
2022-11-05T16:55:46.366Z,93139.56
2022-11-05T16:58:24.632Z,93148.38
2022-11-05T17:00:59.686Z,93142.16
2022-11-05T17:03:26.435Z,93148.38
2022-11-05T17:05:53.171Z,93144.94
2022-11-05T17:08:20.086Z,93151.59
2022-11-05T17:10:46.883Z,93141.50
2022-11-05T17:13:15.781Z,93151.00
2022-11-05T17:15:43.822Z,93150.44
2022-11-05T17:18:16.928Z,93150.63
2022-11-05T17:20:49.980Z,93147.63
2022-11-05T17:23:21.803Z,93143.00
2022-11-05T17:25:50.915Z,93139.25
2022-11-05T17:28:18.811Z,93138.00
2022-11-05T17:30:52.215Z,93139.06
2022-11-05T17:33:20.672Z,93145.47
2022-11-05T17:35:47.463Z,93138.13
2022-11-05T17:38:14.661Z,93140.69
2022-11-05T17:40:41.699Z,93144.97
2022-11-05T17:43:09.390Z,93137.25
2022-11-05T17:45:45.257Z,93134.91
2022-11-05T17:48:12.801Z,93129.84
2022-11-05T17:50:43.820Z,93126.09
2022-11-05T17:53:11.499Z,93125.13
2022-11-05T17:55:44.062Z,93122.97
2022-11-05T17:58:11.609Z,93126.16
2022-11-05T18:00:39.641Z,93124.78
2022-11-05T18:03:06.463Z,93123.94
2022-11-05T18:05:34.198Z,93119.34
2022-11-05T18:08:01.175Z,93118.75
2022-11-05T18:10:28.060Z,93117.53
2022-11-05T18:12:54.814Z,93126.09
2022-11-05T18:15:21.690Z,93126.47
2022-11-05T18:17:48.473Z,93130.66
2022-11-05T18:20:19.180Z,93129.47
2022-11-05T18:22:48.452Z,93124.72
2022-11-05T18:25:15.323Z,93126.09
2022-11-05T18:27:42.147Z,93124.91
2022-11-05T18:30:10.066Z,93129.69
2022-11-05T18:32:37.107Z,93120.53
2022-11-05T18:35:04.200Z,93127.53
2022-11-05T18:37:30.902Z,93123.72
2022-11-05T18:39:57.616Z,93123.53
2022-11-05T18:42:25.362Z,93124.75
2022-11-05T18:44:52.267Z,93120.75
2022-11-05T18:47:19.054Z,93123.72
2022-11-05T18:49:45.925Z,93134.47
2022-11-05T18:52:13.275Z,93129.09
2022-11-05T18:54:40.085Z,93146.03
2022-11-05T18:57:06.792Z,93145.84
2022-11-05T18:59:39.099Z,93148.84
2022-11-05T19:02:07.775Z,93143.84
2022-11-05T19:04:38.026Z,93146.84
2022-11-05T19:07:06.210Z,93147.84
2022-11-05T19:09:34.368Z,93152.81
2022-11-05T19:12:01.662Z,93156.22
2022-11-05T19:14:30.063Z,93156.59
2022-11-05T19:16:57.531Z,93160.38
2022-11-05T19:19:24.409Z,93157.16
2022-11-05T19:21:51.501Z,93154.94
2022-11-05T19:24:18.593Z,93155.53
2022-11-05T19:26:46.722Z,93155.44
2022-11-05T19:29:13.517Z,93162.16
2022-11-05T19:31:40.233Z,93161.69
2022-11-05T19:34:07.000Z,93159.91
2022-11-05T19:36:34.241Z,93163.88
2022-11-05T19:39:06.492Z,93158.84
2022-11-05T19:41:33.284Z,93165.31
2022-11-05T19:44:01.774Z,93152.13
2022-11-05T19:46:29.689Z,93156.03
2022-11-05T19:48:57.256Z,93157.72
2022-11-05T19:51:26.362Z,93156.16
2022-11-05T19:53:53.750Z,93160.28
2022-11-05T19:56:23.253Z,93162.00
2022-11-05T19:58:50.149Z,93168.34
2022-11-05T20:01:18.758Z,93165.53
2022-11-05T20:03:46.428Z,93174.38
2022-11-05T20:06:19.074Z,93170.94
2022-11-05T20:09:19.464Z,93173.25
2022-11-05T20:11:33.111Z,93174.06
2022-11-05T20:14:00.006Z,93180.41
2022-11-05T20:16:29.408Z,93175.97
2022-11-05T20:18:57.171Z,93186.47
2022-11-05T20:21:23.899Z,93184.88
2022-11-05T20:23:50.841Z,93187.81
2022-11-05T20:26:17.550Z,93171.81
2022-11-05T20:28:44.550Z,93183.19
2022-11-05T20:31:14.075Z,93177.84
2022-11-05T20:33:41.334Z,93178.50
2022-11-05T20:36:11.089Z,93183.19
2022-11-05T20:38:37.935Z,93178.03
2022-11-05T20:41:09.345Z,93183.00
2022-11-05T20:43:36.731Z,93182.56
2022-11-05T20:46:04.226Z,93183.66
2022-11-05T20:48:32.651Z,93190.47
2022-11-05T20:51:00.030Z,93190.91
2022-11-05T20:53:27.165Z,93187.84
2022-11-05T20:55:53.918Z,93192.34
2022-11-05T20:58:20.701Z,93195.28
2022-11-05T21:01:08.326Z,93191.44
2022-11-05T21:03:35.119Z,93193.69
2022-11-05T21:06:05.735Z,93191.13
2022-11-05T21:08:33.461Z,93194.66
2022-11-05T21:11:00.816Z,93184.00
2022-11-05T21:13:27.908Z,93200.16
2022-11-05T21:15:56.810Z,93201.47
2022-11-05T21:18:26.128Z,93187.28
2022-11-05T21:20:53.926Z,93196.13
2022-11-05T21:23:21.017Z,93192.69
2022-11-05T21:25:48.049Z,93190.81
2022-11-05T21:28:15.777Z,93196.03
2022-11-05T21:30:47.575Z,93193.66
2022-11-05T21:33:15.926Z,93191.94
2022-11-05T21:35:44.814Z,93181.03
2022-11-05T21:38:13.075Z,93181.22
2022-11-05T21:40:40.287Z,93181.91
2022-11-05T21:43:07.450Z,93180.53
2022-11-05T21:45:34.230Z,93181.78
2022-11-05T21:48:00.976Z,93193.41
2022-11-05T21:50:46.324Z,93194.34
2022-11-05T21:53:32.739Z,93203.47
2022-11-05T21:56:18.046Z,93196.56
2022-11-05T21:59:03.441Z,93198.84
2022-11-05T22:01:30.390Z,93198.56
2022-11-05T22:04:02.681Z,93193.88
2022-11-05T22:06:32.972Z,93201.00
2022-11-05T22:08:59.775Z,93193.34
2022-11-05T22:11:26.518Z,93200.00
2022-11-05T22:13:53.411Z,93195.84
2022-11-05T22:16:20.285Z,93192.59
2022-11-05T22:18:47.058Z,93194.00
2022-11-05T22:21:18.704Z,93201.81
2022-11-05T22:23:45.472Z,93198.72
2022-11-05T22:26:12.239Z,93198.81
2022-11-05T22:28:39.037Z,93194.00
2022-11-05T22:31:15.394Z,93196.78
2022-11-05T22:33:42.196Z,93197.09
2022-11-05T22:36:09.715Z,93193.41
2022-11-05T22:38:36.619Z,93185.41
2022-11-05T22:41:08.401Z,93183.38
2022-11-05T22:43:35.273Z,93185.41
2022-11-05T22:46:06.556Z,93184.06
2022-11-05T22:48:35.583Z,93184.06
2022-11-05T22:51:07.452Z,93180.78
2022-11-05T22:53:35.334Z,93180.97
2022-11-05T22:56:07.028Z,93181.59
2022-11-05T22:58:33.962Z,93187.44
2022-11-05T23:01:01.128Z,93187.19
2022-11-05T23:03:29.411Z,93182.31
2022-11-05T23:06:01.689Z,93186.56
2022-11-05T23:08:47.624Z,93197.84
2022-11-05T23:11:40.692Z,93206.81
2022-11-05T23:14:12.781Z,93202.75
2022-11-05T23:16:58.589Z,93197.75
2022-11-05T23:19:43.915Z,93199.63
2022-11-05T23:22:35.391Z,93198.00
2022-11-05T23:25:02.423Z,93203.91
2022-11-05T23:27:30.782Z,93212.59
2022-11-05T23:29:59.196Z,93210.19
2022-11-05T23:32:28.381Z,93219.78
2022-11-05T23:34:56.655Z,93212.34
2022-11-05T23:37:44.037Z,93209.53
2022-11-05T23:40:14.936Z,93196.50
2022-11-05T23:43:01.146Z,93201.63
2022-11-05T23:45:51.870Z,93200.56
2022-11-05T23:48:21.684Z,93192.31
2022-11-05T23:51:00.449Z,93191.63
2022-11-05T23:53:28.262Z,93198.97
2022-11-05T23:56:00.508Z,93215.66
2022-11-05T23:58:27.759Z,93220.63
